Terminal Aerodrome Forecast
Issued by NWS Jackson, MS

Home | Current Version | Previous Version | Text Only | Print | Product List | Glossary On
Versions: 1 2 3 4 5 6 7 8 9 10 11 12 13 14 15 16 17 18 19 20 21 22 23 24
000
FTUS44 KJAN 250100 AAA
TAFHBG
TAF AMD
KHBG 250114Z 2501/2524 VRB04KT P6SM BKN050
     FM250300 35006KT P6SM VCTS SCT030 BKN050CB
     FM250500 VRB03KT 6SM BR FEW006 SCT030 SCT050
     FM251000 VRB03KT 3SM BR BKN009
     FM251300 VRB04KT 6SM BR BKN014
     FM251430 25005KT P6SM SCT030
     FM251800 28006KT P6SM VCTS SCT040 BKN060CB=

USA.gov is the U.S. government's official web portal to all federal, state and local government web resources and services.